This is the latest recevied weather packets stored in our database for station/object DO8TBO-15. If no packets are shown the sender has not sent any weather packets the latest 1 day(s).
| Time | Temp. | Humidity | Pressure | Rain* | Wind** | Luminosity | Snow |
|---|---|---|---|---|---|---|---|
| 1777987528 | 25.56° C | - | 1005.6 hPa | 0 mm | 0.45 m/s, 345° | - | - |
| 1777986925 | 25° C | - | 1005.7 hPa | 0 mm | 0.45 m/s, 0° | - | - |
| 1777986320 | 25° C | - | 1005.9 hPa | 0 mm | 0.89 m/s, 0° | - | - |
| 1777985717 | 25.56° C | - | 1005.9 hPa | 0 mm | 0.45 m/s, 325° | - | - |
| 1777985174 | 26.67° C | - | 1005.9 hPa | 0 mm | 1.34 m/s, 326° | - | - |
| 1777984569 | 26.11° C | - | 1006.1 hPa | 0 mm | 0.45 m/s, 332° | - | - |
| 1777983967 | 25° C | - | 1006.4 hPa | 0 mm | 0.45 m/s, 31° | - | - |
| 1777983362 | 25° C | - | 1006.4 hPa | 0 mm | 0.89 m/s, 27° | - | - |
| 1777982155 | 25.56° C | - | 1006.6 hPa | 0 mm | 0.45 m/s, 0° | - | - |
| 1777981550 | 25° C | - | 1006.6 hPa | 0 mm | 0 m/s | - | - |
| 1777980947 | 25.56° C | - | 1006.7 hPa | 0 mm | 0.45 m/s, 320° | - | - |
| 1777980343 | 25.56° C | - | 1006.8 hPa | 0 mm | 0.45 m/s, 325° | - | - |
| 1777979135 | 25.56° C | - | 1007.1 hPa | 0 mm | 0.45 m/s, 90° | - | - |
| 1777978532 | 25° C | - | 1007.1 hPa | 0 mm | 0.45 m/s, 55° | - | - |
| 1777977958 | 24.44° C | - | 1007.2 hPa | 0 mm | 0 m/s | - | - |
| 1777977355 | 23.89° C | - | 1007.4 hPa | 0 mm | 0 m/s | - | - |
| 1777976751 | 23.89° C | - | 1007.5 hPa | 0 mm | 0.45 m/s, 23° | - | - |
| 1777976146 | 23.89° C | - | 1007.6 hPa | 0 mm | 0 m/s | - | - |
| 1777974939 | 23.33° C | - | 1007.9 hPa | 0 mm | 0 m/s | - | - |
| 1777974335 | 22.22° C | - | 1007.9 hPa | 0 mm | 0.89 m/s, 9° | - | - |
| 1777973732 | 22.22° C | - | 1008 hPa | 0 mm | 0.45 m/s, 330° | - | - |
| 1777973128 | 21.67° C | - | 1008.2 hPa | 0 mm | 0.45 m/s, 22° | - | - |
| 1777972524 | 20.56° C | - | 1008.3 hPa | 0 mm | 0.45 m/s, 23° | - | - |
| 1777971920 | 20.56° C | - | 1008.3 hPa | 0 mm | 0.89 m/s, 0° | - | - |
| 1777971316 | 20° C | - | 1008.4 hPa | 0 mm | 0.89 m/s, 346° | - | - |
* Rain latest hour (hover to see other rain measurements)
** Current wind speed in m/s (hover to see current wind gust speed)